Time;durP1;ratioP1;P1;durP2;ratioP2;P2;SDS_P1;SDS_P2;PMS_P1;PMS_P2;Temp;Humidity;BMP_temperature;BMP_pressure;BME280_temperature;BME280_humidity;BME280_pressure;Samples;Min_cycle;Max_cycle;Signal;HPM_P1;HPM_P2
2023/01/09 00:00:43;;;;;;;6.82;4.38;;;8.00;99.90;;;;;;5054719;28;20028;-77
2023/01/09 00:03:09;;;;;;;7.68;4.85;;;8.00;99.90;;;;;;5055109;28;20381;-77
2023/01/09 00:05:35;;;;;;;8.02;5.10;;;8.00;99.90;;;;;;5053571;28;20029;-77
2023/01/09 00:08:02;;;;;;;7.80;4.53;;;7.90;99.90;;;;;;5054468;28;20048;-77
2023/01/09 00:10:28;;;;;;;7.35;4.80;;;8.00;99.90;;;;;;5054670;28;20351;-77
2023/01/09 00:12:54;;;;;;;6.32;5.03;;;8.00;99.90;;;;;;5054070;28;20028;-76
2023/01/09 00:15:20;;;;;;;6.65;4.57;;;8.00;99.90;;;;;;5053081;28;20036;-76
2023/01/09 00:17:48;;;;;;;7.53;4.72;;;8.00;99.90;;;;;;5065872;28;20040;-77
2023/01/09 00:20:15;;;;;;;8.50;5.20;;;7.90;99.90;;;;;;5074598;28;20033;-76
2023/01/09 00:22:41;;;;;;;7.80;5.47;;;7.90;99.90;;;;;;5074570;28;20020;-76
2023/01/09 00:25:07;;;;;;;8.57;5.45;;;7.90;99.90;;;;;;5074145;28;20472;-76
2023/01/09 00:27:34;;;;;;;8.23;5.90;;;7.90;99.90;;;;;;5097479;28;20027;-76
2023/01/09 00:30:01;;;;;;;8.10;5.65;;;7.90;99.90;;;;;;5098552;28;20035;-77
2023/01/09 00:32:27;;;;;;;6.97;4.82;;;8.00;99.90;;;;;;5103152;28;20028;-77
2023/01/09 00:34:54;;;;;;;7.43;4.80;;;7.90;99.90;;;;;;5085589;28;20036;-77
2023/01/09 00:37:21;;;;;;;8.48;4.20;;;8.00;99.90;;;;;;5078123;28;20373;-77
2023/01/09 00:39:47;;;;;;;7.93;4.38;;;8.00;99.90;;;;;;5073658;28;20029;-77
2023/01/09 00:42:20;;;;;;;7.93;4.32;;;8.00;99.90;;;;;;5074009;28;20035;-76
2023/01/09 00:44:51;;;;;;;6.70;3.78;;;8.00;99.90;;;;;;5079296;28;20040;-77
2023/01/09 00:47:26;;;;;;;4.75;3.30;;;8.00;99.90;;;;;;5065738;28;20029;-76
2023/01/09 00:49:53;;;;;;;6.15;3.72;;;8.10;99.90;;;;;;5074097;28;20032;-76
2023/01/09 00:52:20;;;;;;;7.30;3.75;;;8.10;99.90;;;;;;5074127;28;20035;-76
2023/01/09 00:54:46;;;;;;;5.00;3.33;;;8.00;99.90;;;;;;5074259;28;20468;-76
2023/01/09 00:57:13;;;;;;;8.35;3.70;;;8.00;99.90;;;;;;5087428;28;20040;-77
2023/01/09 00:59:41;;;;;;;4.20;2.88;;;8.10;99.90;;;;;;5076316;28;20028;-76
2023/01/09 01:02:07;;;;;;;5.57;3.10;;;8.10;99.90;;;;;;5073070;28;20373;-77
2023/01/09 01:07:37;;;;;;;4.70;3.38;;;8.10;99.90;;;;;;5076623;28;20042;-77
2023/01/09 01:10:12;;;;;;;4.63;2.95;;;8.10;99.90;;;;;;5092528;28;20032;-76
2023/01/09 01:12:39;;;;;;;4.15;2.75;;;8.10;99.90;;;;;;5072445;28;20036;-76
2023/01/09 01:15:06;;;;;;;6.22;3.08;;;8.10;99.90;;;;;;5073064;28;20389;-76
2023/01/09 01:17:34;;;;;;;4.03;2.72;;;8.20;99.90;;;;;;5054302;28;20045;-76
2023/01/09 01:20:01;;;;;;;6.05;2.88;;;8.20;99.90;;;;;;5047637;28;20040;-77
2023/01/09 01:22:27;;;;;;;5.60;3.10;;;8.20;99.90;;;;;;5051159;28;20033;-76
2023/01/09 01:24:53;;;;;;;5.20;2.53;;;8.20;99.90;;;;;;5034925;28;20041;-77
2023/01/09 01:27:19;;;;;;;4.13;2.33;;;8.10;99.90;;;;;;5053070;28;20037;-76
2023/01/09 01:29:45;;;;;;;4.43;2.17;;;8.20;99.90;;;;;;5052961;28;20044;-76
2023/01/09 01:32:12;;;;;;;5.40;2.40;;;8.20;99.90;;;;;;5032651;28;20032;-76
2023/01/09 01:34:38;;;;;;;4.22;2.55;;;8.20;99.90;;;;;;5034873;28;20033;-77
2023/01/09 01:37:04;;;;;;;3.13;2.05;;;8.20;99.90;;;;;;5052409;28;20029;-76
2023/01/09 01:39:31;;;;;;;3.40;1.92;;;8.20;99.90;;;;;;5052987;28;20033;-76
2023/01/09 01:41:57;;;;;;;5.40;1.85;;;8.20;99.90;;;;;;5033171;28;20450;-77
2023/01/09 01:45:00;;;;;;;3.72;2.30;;;8.20;99.90;;;;;;5030829;28;20040;-76
2023/01/09 01:47:33;;;;;;;3.28;1.60;;;8.20;99.90;;;;;;5035066;28;20060;-76
2023/01/09 01:50:03;;;;;;;2.47;1.38;;;8.20;99.90;;;;;;5034169;28;20033;-76
2023/01/09 01:52:31;;;;;;;1.98;1.27;;;8.20;99.90;;;;;;5051747;28;20030;-76
2023/01/09 01:54:58;;;;;;;2.10;1.13;;;8.30;99.90;;;;;;5034295;28;20029;-76
2023/01/09 01:57:24;;;;;;;1.92;1.05;;;8.30;99.90;;;;;;5034912;28;20040;-76
2023/01/09 01:59:55;;;;;;;2.22;1.05;;;8.20;99.90;;;;;;5033501;28;20210;-76
2023/01/09 02:02:26;;;;;;;2.08;1.10;;;8.20;99.90;;;;;;5052195;28;20036;-75
2023/01/09 02:04:54;;;;;;;2.35;1.10;;;8.20;99.90;;;;;;5052301;28;20562;-76
2023/01/09 02:07:21;;;;;;;1.83;0.93;;;8.20;99.90;;;;;;5034900;28;20371;-76
2023/01/09 02:09:47;;;;;;;2.55;1.15;;;8.20;99.90;;;;;;5052251;28;20041;-76
2023/01/09 02:12:17;;;;;;;1.88;0.90;;;8.20;99.90;;;;;;5051109;28;20052;-76
2023/01/09 02:14:45;;;;;;;1.42;0.82;;;8.20;99.90;;;;;;5034478;28;20025;-76
2023/01/09 02:17:32;;;;;;;1.63;1.25;;;8.20;99.90;;;;;;5052194;28;20048;-76
2023/01/09 02:20:19;;;;;;;1.20;0.73;;;8.20;99.90;;;;;;5051907;28;20367;-75
2023/01/09 02:23:30;;;;;;;1.48;0.90;;;8.20;99.90;;;;;;5034844;28;20037;-75
2023/01/09 02:26:08;;;;;;;3.00;0.75;;;8.20;99.90;;;;;;5031672;28;20478;-75
2023/01/09 02:28:56;;;;;;;2.55;1.33;;;8.20;99.90;;;;;;5034978;28;20041;-74
2023/01/09 02:31:52;;;;;;;3.10;1.10;;;8.20;99.90;;;;;;5051402;28;20477;-75
2023/01/09 02:34:36;;;;;;;1.80;1.10;;;8.20;99.90;;;;;;5024072;28;20037;-74
2023/01/09 02:37:08;;;;;;;2.05;1.27;;;8.20;99.90;;;;;;5031486;28;20040;-75
2023/01/09 02:39:45;;;;;;;4.00;1.33;;;8.20;99.90;;;;;;5053615;28;20045;-75
2023/01/09 02:42:14;;;;;;;3.90;1.73;;;8.20;99.90;;;;;;5070164;28;20052;-74
2023/01/09 02:44:41;;;;;;;4.80;2.10;;;8.30;99.90;;;;;;5038417;28;20045;-74
2023/01/09 02:47:30;;;;;;;2.42;1.63;;;8.30;99.90;;;;;;5033367;28;20385;-75
2023/01/09 02:50:03;;;;;;;3.38;1.70;;;8.30;99.90;;;;;;5056356;28;20465;-74
2023/01/09 02:53:01;;;;;;;4.07;2.65;;;8.20;99.90;;;;;;5071332;28;20024;-75
2023/01/09 02:55:43;;;;;;;4.00;2.60;;;8.20;99.90;;;;;;5037705;28;20041;-74
2023/01/09 02:58:20;;;;;;;;;;;8.20;99.90;;;;;;5051999;28;20041;-75
2023/01/09 03:00:53;;;;;;;3.10;2.15;;;8.30;99.90;;;;;;5051275;28;19911;-74
2023/01/09 03:03:22;;;;;;;3.90;2.20;;;8.20;99.90;;;;;;5052097;28;20048;-74
2023/01/09 03:05:59;;;;;;;6.10;3.75;;;8.20;99.90;;;;;;5068910;28;20028;-74
2023/01/09 03:08:39;;;;;;;5.18;2.70;;;8.20;99.90;;;;;;5074788;28;20028;-74
2023/01/09 03:11:07;;;;;;;4.13;2.17;;;8.20;99.90;;;;;;5072937;28;20048;-74
2023/01/09 03:13:48;;;;;;;3.70;1.85;;;8.10;99.90;;;;;;5074858;28;20016;-78
2023/01/09 03:16:16;;;;;;;;;;;8.10;99.90;;;;;;5074758;28;20052;-75
2023/01/09 03:18:44;;;;;;;4.05;1.70;;;8.10;99.90;;;;;;5075020;28;20256;-74
2023/01/09 03:21:11;;;;;;;2.90;1.92;;;8.10;99.90;;;;;;5073050;28;20390;-74
2023/01/09 03:23:54;;;;;;;4.55;1.80;;;8.10;99.90;;;;;;5074631;28;20025;-75
2023/01/09 03:26:20;;;;;;;3.72;2.15;;;8.10;99.90;;;;;;5038390;28;20033;-75
2023/01/09 03:28:47;;;;;;;1.15;0.70;;;8.20;99.90;;;;;;5073858;28;20043;-78
2023/01/09 03:31:13;;;;;;;1.38;0.60;;;8.30;80.30;;;;;;5054972;28;20285;-73
2023/01/09 03:33:40;;;;;;;1.05;0.60;;;8.30;42.60;;;;;;5056961;28;20029;-77
2023/01/09 03:36:07;;;;;;;1.38;0.50;;;8.40;16.60;;;;;;5054814;28;20028;-78
2023/01/09 03:38:34;;;;;;;0.93;0.47;;;8.40;6.90;;;;;;5065786;28;20032;-77
2023/01/09 03:41:00;;;;;;;1.20;0.68;;;8.40;6.10;;;;;;5072540;28;20039;-72
2023/01/09 03:43:27;;;;;;;0.60;0.43;;;8.40;1.00;;;;;;5074240;28;20366;-72
2023/01/09 03:45:53;;;;;;;1.05;0.60;;;8.50;1.00;;;;;;5074038;28;20032;-73
2023/01/09 03:48:19;;;;;;;2.45;1.55;;;8.50;1.00;;;;;;5064661;28;20036;-79
2023/01/09 03:50:48;;;;;;;2.15;0.55;;;8.50;1.00;;;;;;5053927;28;20036;-74
2023/01/09 03:53:14;;;;;;;3.95;0.60;;;8.40;1.00;;;;;;5054265;28;20039;-76
2023/01/09 03:55:49;;;;;;;0.90;0.40;;;8.50;1.00;;;;;;5055125;28;20434;-78
2023/01/09 03:58:16;;;;;;;0.75;0.40;;;8.50;1.00;;;;;;5054621;28;20330;-74
2023/01/09 04:00:44;;;;;;;0.88;0.40;;;8.60;1.00;;;;;;5062807;28;20036;-76
2023/01/09 04:03:12;;;;;;;0.40;0.30;;;8.60;1.00;;;;;;5073731;28;20063;-74
2023/01/09 04:05:38;;;;;;;1.15;0.30;;;8.50;1.00;;;;;;5073777;28;20037;-75
2023/01/09 04:08:04;;;;;;;0.68;0.40;;;8.40;1.00;;;;;;5057912;28;20029;-77
2023/01/09 04:10:30;;;;;;;2.53;0.70;;;8.30;1.00;;;;;;5035428;28;20052;-77
2023/01/09 04:12:57;;;;;;;1.00;0.40;;;8.30;1.00;;;;;;5036395;28;20033;-77
2023/01/09 04:15:23;;;;;;;0.50;0.30;;;8.20;1.00;;;;;;5035393;28;20050;-75
2023/01/09 04:17:49;;;;;;;0.90;0.47;;;8.30;1.00;;;;;;5055828;28;20458;-76
2023/01/09 04:20:15;;;;;;;1.52;0.60;;;8.30;1.00;;;;;;5045889;28;20458;-77
2023/01/09 04:22:42;;;;;;;2.13;0.40;;;8.40;1.00;;;;;;5066602;28;20020;-77
2023/01/09 04:25:08;;;;;;;1.70;0.50;;;8.50;1.00;;;;;;5074025;28;20024;-75
2023/01/09 04:27:34;;;;;;;1.23;0.40;;;8.40;1.00;;;;;;5039298;28;20040;-76
2023/01/09 04:30:00;;;;;;;0.50;0.35;;;8.40;1.00;;;;;;5055601;28;20137;-75
2023/01/09 04:32:27;;;;;;;1.08;0.50;;;8.40;1.00;;;;;;5037505;28;20450;-74
2023/01/09 04:34:54;;;;;;;0.60;0.40;;;8.30;1.00;;;;;;5073253;28;20028;-73
2023/01/09 04:37:21;;;;;;;0.88;0.35;;;8.40;1.00;;;;;;5073021;28;20449;-74
2023/01/09 04:39:47;;;;;;;1.48;0.52;;;8.30;1.00;;;;;;5048871;28;20040;-72
2023/01/09 04:42:13;;;;;;;1.25;0.40;;;8.30;1.00;;;;;;5071252;28;20033;-74
2023/01/09 04:44:39;;;;;;;1.10;0.60;;;8.30;1.00;;;;;;5073284;28;20028;-73
2023/01/09 04:47:06;;;;;;;1.83;0.30;;;8.30;1.00;;;;;;5072234;28;20029;-74
2023/01/09 04:49:32;;;;;;;0.57;0.35;;;8.30;1.00;;;;;;5068463;28;20036;-73
2023/01/09 04:51:58;;;;;;;1.35;1.05;;;8.20;1.00;;;;;;5073597;28;20035;-75
2023/01/09 04:54:24;;;;;;;1.10;0.50;;;8.20;1.00;;;;;;5048212;28;20032;-74
2023/01/09 04:56:50;;;;;;;2.05;0.40;;;8.20;1.00;;;;;;5055484;28;20040;-74
2023/01/09 04:59:16;;;;;;;2.47;0.57;;;8.20;1.00;;;;;;5069185;28;20372;-75
2023/01/09 05:01:43;;;;;;;0.45;0.20;;;8.20;1.00;;;;;;5068207;28;20032;-73
2023/01/09 05:04:10;;;;;;;0.88;0.40;;;8.20;1.00;;;;;;5071847;28;20461;-75
2023/01/09 05:06:36;;;;;;;0.68;0.30;;;8.30;1.00;;;;;;5054460;28;20484;-75
2023/01/09 05:09:02;;;;;;;1.52;0.45;;;8.30;1.00;;;;;;5054264;28;20060;-75
2023/01/09 05:11:28;;;;;;;1.33;0.65;;;8.30;1.00;;;;;;5065232;28;20469;-80
2023/01/09 05:13:54;;;;;;;1.00;0.45;;;8.20;1.00;;;;;;5055234;28;20099;-75
2023/01/09 05:16:21;;;;;;;1.20;0.38;;;8.20;1.00;;;;;;5057919;28;20036;-77
2023/01/09 05:18:47;;;;;;;0.90;0.30;;;8.20;1.00;;;;;;5073196;28;20453;-76
2023/01/09 05:21:13;;;;;;;1.00;0.40;;;8.20;1.00;;;;;;5085765;28;20032;-75
2023/01/09 05:23:39;;;;;;;2.08;0.43;;;8.10;1.00;;;;;;5071667;28;20024;-75
2023/01/09 05:26:06;;;;;;;2.80;0.55;;;8.10;1.00;;;;;;5072798;28;20062;-75
2023/01/09 05:28:32;;;;;;;0.82;0.38;;;8.10;1.00;;;;;;5072822;28;20032;-76
2023/01/09 05:30:58;;;;;;;0.47;0.38;;;8.00;1.00;;;;;;5072741;28;20029;-80
2023/01/09 05:33:24;;;;;;;2.88;0.45;;;8.00;1.00;;;;;;5071615;28;20024;-76
2023/01/09 05:35:50;;;;;;;1.45;0.40;;;7.90;1.00;;;;;;5071677;28;20033;-76
2023/01/09 05:38:17;;;;;;;1.15;0.35;;;8.00;1.00;;;;;;5076203;28;20024;-76
2023/01/09 05:40:43;;;;;;;1.02;0.40;;;8.00;1.00;;;;;;5092037;28;20028;-76
2023/01/09 05:43:09;;;;;;;0.57;0.28;;;8.00;1.00;;;;;;5084902;28;20031;-76
2023/01/09 05:45:35;;;;;;;1.05;0.30;;;8.00;1.00;;;;;;5087762;28;20071;-77
2023/01/09 05:48:01;;;;;;;1.20;0.30;;;7.90;1.00;;;;;;5078515;28;20035;-77
2023/01/09 05:50:28;;;;;;;1.20;0.50;;;7.80;1.00;;;;;;5081255;28;20392;-78
2023/01/09 05:52:54;;;;;;;3.45;0.50;;;7.70;1.00;;;;;;5090858;28;20422;-77
2023/01/09 05:55:20;;;;;;;5.60;0.80;;;7.50;1.00;;;;;;5076905;28;20035;-77
2023/01/09 05:57:46;;;;;;;2.60;0.57;;;7.40;1.00;;;;;;5072536;28;20043;-77
2023/01/09 06:00:13;;;;;;;1.70;0.40;;;7.30;1.00;;;;;;5082023;28;20024;-77
2023/01/09 06:02:40;;;;;;;2.53;0.30;;;7.40;1.00;;;;;;5078575;28;20024;-75
2023/01/09 06:05:06;;;;;;;1.52;0.50;;;7.40;1.00;;;;;;5073114;28;20027;-77
2023/01/09 06:07:35;;;;;;;1.88;0.60;;;7.40;1.00;;;;;;5079451;28;20025;-73
2023/01/09 06:10:01;;;;;;;2.28;0.45;;;7.60;1.00;;;;;;5084289;28;20050;-74
2023/01/09 06:12:27;;;;;;;2.92;0.60;;;7.70;1.00;;;;;;5074557;28;20035;-73
2023/01/09 06:14:53;;;;;;;1.55;0.50;;;7.70;1.00;;;;;;5082830;28;20032;-76
2023/01/09 06:17:19;;;;;;;1.70;0.50;;;7.80;1.00;;;;;;5067076;28;20032;-77
2023/01/09 06:19:46;;;;;;;7.10;0.57;;;7.70;1.00;;;;;;5071338;28;20035;-75
2023/01/09 06:22:12;;;;;;;3.75;0.70;;;7.70;1.00;;;;;;5064855;28;20051;-75
2023/01/09 06:24:38;;;;;;;3.05;0.63;;;7.70;1.00;;;;;;5052489;28;20047;-75
2023/01/09 06:27:05;;;;;;;5.18;0.80;;;7.70;1.00;;;;;;5051447;28;20119;-79
2023/01/09 06:29:31;;;;;;;2.45;0.80;;;7.70;1.00;;;;;;5052709;28;20334;-78
2023/01/09 06:31:57;;;;;;;3.15;0.52;;;7.70;1.00;;;;;;5069940;28;20709;-79
2023/01/09 06:34:24;;;;;;;4.85;0.60;;;7.70;1.00;;;;;;5052971;28;20044;-79
2023/01/09 06:36:50;;;;;;;4.28;1.15;;;7.70;1.00;;;;;;5071128;28;20024;-78
2023/01/09 06:39:16;;;;;;;4.05;1.15;;;7.70;1.00;;;;;;5040413;28;20051;-79
2023/01/09 06:41:44;;;;;;;6.13;0.95;;;7.60;1.00;;;;;;5069363;28;20024;-79
2023/01/09 06:44:10;;;;;;;4.70;1.20;;;7.60;1.00;;;;;;5058866;28;20032;-79
2023/01/09 06:46:36;;;;;;;5.53;0.93;;;7.60;1.00;;;;;;5069399;28;20033;-79
2023/01/09 06:49:02;;;;;;;2.40;0.80;;;7.60;1.00;;;;;;5040029;28;20068;-79
2023/01/09 06:51:28;;;;;;;3.58;1.08;;;7.60;1.00;;;;;;5039667;28;20048;-77
2023/01/09 06:53:54;;;;;;;3.45;1.02;;;7.60;1.00;;;;;;5042713;28;20024;-78
2023/01/09 06:56:21;;;;;;;3.88;0.77;;;7.60;1.00;;;;;;5035835;28;20040;-78
2023/01/09 06:58:47;;;;;;;4.57;0.93;;;7.50;1.00;;;;;;5057931;28;20028;-78
2023/01/09 07:01:13;;;;;;;1.45;0.50;;;7.60;1.00;;;;;;5058099;28;20039;-78
2023/01/09 07:03:40;;;;;;;5.10;0.80;;;7.60;1.00;;;;;;5076386;28;20028;-78
2023/01/09 07:06:06;;;;;;;4.63;1.00;;;7.60;1.00;;;;;;5042616;28;20425;-78
2023/01/09 07:08:33;;;;;;;6.00;1.17;;;7.60;1.00;;;;;;5059174;28;20056;-77
2023/01/09 07:10:59;;;;;;;5.15;1.27;;;7.60;1.00;;;;;;5055341;28;20055;-79
2023/01/09 07:13:25;;;;;;;4.75;1.20;;;7.60;1.00;;;;;;5047452;28;20496;-78
2023/01/09 07:15:52;;;;;;;3.78;1.20;;;7.60;1.00;;;;;;5048196;28;20033;-76
2023/01/09 07:18:19;;;;;;;5.25;1.13;;;7.50;1.00;;;;;;5069081;28;20487;-77
2023/01/09 07:20:45;;;;;;;6.20;1.52;;;7.50;1.00;;;;;;5072727;28;20035;-78
2023/01/09 07:23:12;;;;;;;4.88;0.82;;;7.50;1.00;;;;;;5063179;28;20035;-77
2023/01/09 07:25:40;;;;;;;6.65;1.20;;;7.50;1.00;;;;;;5044629;28;20370;-76
2023/01/09 07:28:06;;;;;;;6.07;0.82;;;7.40;1.00;;;;;;5057609;28;20393;-77
2023/01/09 07:30:32;;;;;;;11.30;2.45;;;7.40;1.00;;;;;;5058040;28;20397;-75
2023/01/09 07:32:58;;;;;;;4.10;0.75;;;7.30;1.00;;;;;;5069096;28;20382;-75
2023/01/09 07:35:27;;;;;;;1.60;0.70;;;7.30;1.00;;;;;;5039291;28;20405;-76
2023/01/09 07:37:54;;;;;;;1.95;0.80;;;7.40;1.00;;;;;;5058844;28;20029;-77
2023/01/09 07:40:21;;;;;;;5.10;1.33;;;7.30;1.00;;;;;;5057967;28;20048;-78
2023/01/09 07:42:47;;;;;;;4.10;0.77;;;7.30;1.00;;;;;;5038767;28;20041;-75
2023/01/09 07:45:13;;;;;;;3.63;1.38;;;7.30;1.00;;;;;;5057637;28;20029;-74
2023/01/09 07:47:40;;;;;;;4.05;0.85;;;7.30;1.00;;;;;;5024018;28;20048;-74
2023/01/09 07:50:08;;;;;;;6.30;1.02;;;7.40;1.00;;;;;;5054928;28;20044;-76
2023/01/09 07:52:34;;;;;;;2.78;0.77;;;7.30;1.00;;;;;;5061619;28;20036;-78
2023/01/09 07:55:00;;;;;;;4.22;1.65;;;7.40;1.00;;;;;;5065527;28;20037;-81
2023/01/09 07:57:28;;;;;;;6.55;0.82;;;7.40;1.00;;;;;;5072997;28;20033;-78
2023/01/09 07:59:54;;;;;;;5.97;1.00;;;7.40;1.00;;;;;;5056897;28;20044;-78
2023/01/09 08:02:21;;;;;;;6.22;0.77;;;7.40;1.00;;;;;;5026871;28;20033;-78
2023/01/09 08:04:47;;;;;;;3.22;0.80;;;7.40;1.00;;;;;;5036425;28;20044;-79
2023/01/09 08:07:13;;;;;;;5.53;1.35;;;7.40;1.00;;;;;;5037948;28;20481;-78
2023/01/09 08:09:39;;;;;;;7.93;1.00;;;7.30;1.00;;;;;;5073995;28;20040;-79
2023/01/09 08:12:05;;;;;;;3.30;1.55;;;7.40;1.00;;;;;;5073659;28;20025;-82
2023/01/09 08:14:31;;;;;;;7.72;0.98;;;7.30;1.00;;;;;;5044889;28;20466;-79
2023/01/09 08:16:58;;;;;;;3.08;0.95;;;7.30;1.00;;;;;;5053587;28;20041;-78
2023/01/09 08:19:24;;;;;;;5.97;1.00;;;7.30;1.00;;;;;;5036349;28;20055;-77
2023/01/09 08:21:50;;;;;;;6.13;1.00;;;7.30;1.00;;;;;;5061264;28;20028;-78
2023/01/09 08:24:16;;;;;;;6.45;1.13;;;7.40;1.00;;;;;;5053634;28;20451;-79
2023/01/09 08:26:42;;;;;;;3.67;0.75;;;7.40;1.00;;;;;;5068993;28;20029;-77
2023/01/09 08:29:09;;;;;;;5.43;1.50;;;7.30;1.00;;;;;;5039376;28;20033;-77
2023/01/09 08:31:35;;;;;;;7.65;1.05;;;7.30;1.00;;;;;;5054075;28;20462;-78
2023/01/09 08:34:01;;;;;;;4.00;0.80;;;7.40;1.00;;;;;;5054430;28;20021;-79
2023/01/09 08:36:28;;;;;;;3.35;0.60;;;7.50;1.00;;;;;;5034376;28;20048;-79
2023/01/09 08:38:54;;;;;;;4.70;1.00;;;7.60;1.00;;;;;;5054466;28;20044;-79
2023/01/09 08:47:07;;;;;;;4.15;1.33;;;8.00;1.00;;;;;;5065795;28;20371;-77
2023/01/09 08:49:34;;;;;;;10.82;2.03;;;8.00;1.00;;;;;;5060645;28;20044;-78
2023/01/09 08:52:01;;;;;;;4.72;1.20;;;8.00;1.00;;;;;;5054829;28;20036;-79
2023/01/09 08:54:27;;;;;;;2.40;0.98;;;8.00;1.00;;;;;;5054925;28;20269;-79
2023/01/09 08:56:53;;;;;;;2.50;0.55;;;7.90;1.00;;;;;;5072353;28;20024;-79
2023/01/09 08:59:19;;;;;;;5.45;0.73;;;7.80;1.00;;;;;;5055232;28;20040;-79
2023/01/09 09:01:46;;;;;;;2.08;0.63;;;7.70;1.00;;;;;;5073219;28;20035;-78
2023/01/09 09:04:12;;;;;;;2.47;0.60;;;7.70;1.00;;;;;;5077251;28;20025;-80
2023/01/09 09:06:38;;;;;;;3.03;0.47;;;7.70;1.00;;;;;;5071779;28;20024;-76
2023/01/09 09:09:05;;;;;;;5.45;1.00;;;7.80;1.00;;;;;;5071537;28;20036;-80
2023/01/09 09:11:35;;;;;;;2.97;0.60;;;7.70;1.00;;;;;;5058274;28;20032;-81
2023/01/09 09:15:11;;;;;;;5.20;0.95;;;7.80;1.00;;;;;;5085388;28;20029;-80
2023/01/09 09:16:51;;;;;;;3.45;0.88;;;7.80;1.00;;;;;;5075817;28;20048;-81
2023/01/09 09:19:18;;;;;;;3.95;0.60;;;7.80;1.00;;;;;;5077204;28;20032;-81
2023/01/09 09:21:44;;;;;;;4.30;0.70;;;7.80;1.00;;;;;;5066699;28;20041;-82
2023/01/09 09:24:10;;;;;;;1.60;0.60;;;7.80;1.00;;;;;;5053077;28;20462;-79
2023/01/09 09:26:36;;;;;;;4.47;1.02;;;7.80;1.00;;;;;;5052332;28;20041;-80
2023/01/09 09:29:02;;;;;;;5.20;0.77;;;8.00;1.00;;;;;;5054652;28;20041;-82
2023/01/09 09:31:29;;;;;;;5.40;0.70;;;8.10;1.00;;;;;;5055196;28;20033;-82
2023/01/09 09:33:55;;;;;;;2.50;0.85;;;8.10;1.00;;;;;;5071725;28;20043;-79
2023/01/09 09:36:21;;;;;;;6.28;1.25;;;8.10;1.00;;;;;;5052070;28;20029;-79
2023/01/09 09:38:48;;;;;;;1.73;0.82;;;8.10;1.00;;;;;;5072124;28;20454;-78
2023/01/09 09:44:45;;;;;;;5.05;1.77;;;8.20;1.00;;;;;;5071121;28;20040;-80
2023/01/09 09:47:40;;;;;;;5.82;1.30;;;8.20;1.00;;;;;;5071234;28;20036;-80
2023/01/09 09:50:27;;;;;;;5.13;0.95;;;8.20;1.00;;;;;;5072009;28;20040;-83
2023/01/09 09:53:12;;;;;;;6.07;1.50;;;8.20;1.00;;;;;;5054267;28;20032;-81
2023/01/09 09:55:41;;;;;;;5.88;1.10;;;8.20;1.00;;;;;;5071146;28;20032;-82
2023/01/09 09:58:16;;;;;;;6.38;1.73;;;8.20;1.00;;;;;;5072242;28;20461;-81
2023/01/09 10:00:43;;;;;;;7.90;1.23;;;8.20;1.00;;;;;;5051281;28;20041;-84
2023/01/09 10:03:24;;;;;;;5.90;1.70;;;8.20;1.00;;;;;;5058235;28;20033;-84
2023/01/09 10:05:51;;;;;;;7.20;1.40;;;8.20;1.00;;;;;;5054481;28;20048;-84
2023/01/09 10:08:46;;;;;;;3.55;1.00;;;8.20;1.00;;;;;;5069920;28;20033;-84
2023/01/09 10:11:17;;;;;;;2.95;0.57;;;8.30;1.00;;;;;;5051907;28;20040;-82
2023/01/09 10:16:39;;;;;;;3.47;0.68;;;8.10;1.00;;;;;;5042129;28;20048;-83
2023/01/09 10:19:36;;;;;;;4.72;1.27;;;8.20;1.00;;;;;;5089277;28;20047;-84
2023/01/09 10:22:34;;;;;;;5.72;1.13;;;8.20;1.00;;;;;;5077627;28;20043;-83
2023/01/09 10:25:18;;;;;;;5.28;1.00;;;8.10;1.00;;;;;;5071492;28;20043;-83
2023/01/09 10:28:09;;;;;;;3.78;0.70;;;8.10;1.00;;;;;;5078863;28;20035;-83
2023/01/09 10:30:49;;;;;;;2.08;0.40;;;8.20;1.00;;;;;;5090774;28;20036;-84
2023/01/09 10:33:22;;;;;;;4.50;1.25;;;8.20;1.00;;;;;;5077140;28;20090;-83
2023/01/09 10:36:27;;;;;;;3.38;1.10;;;8.20;1.00;;;;;;5089581;28;20032;-83
2023/01/09 10:38:58;;;;;;;3.97;0.90;;;8.20;1.00;;;;;;5090402;28;20063;-84
2023/01/09 10:41:38;;;;;;;3.05;0.93;;;8.20;1.00;;;;;;5088166;28;20029;-83
2023/01/09 10:44:10;;;;;;;4.28;0.52;;;8.30;1.00;;;;;;5083126;28;20365;-83
2023/01/09 10:46:46;;;;;;;1.48;0.60;;;8.40;1.00;;;;;;5088210;28;20040;-83
2023/01/09 10:49:16;;;;;;;4.38;0.77;;;8.30;1.00;;;;;;5091929;28;20036;-81
2023/01/09 10:51:45;;;;;;;4.72;0.68;;;8.20;1.00;;;;;;5071476;28;20055;-83
2023/01/09 10:54:14;;;;;;;2.85;0.40;;;8.10;1.00;;;;;;5079068;28;20040;-80
2023/01/09 10:56:46;;;;;;;3.50;0.60;;;8.10;1.00;;;;;;5088900;28;20028;-79
2023/01/09 10:59:12;;;;;;;2.88;0.57;;;8.10;1.00;;;;;;5091112;28;20039;-82
2023/01/09 11:01:39;;;;;;;3.97;0.55;;;8.00;1.00;;;;;;5083675;28;20039;-81
2023/01/09 11:04:25;;;;;;;7.43;0.70;;;8.00;1.00;;;;;;5072170;28;20390;-81
2023/01/09 11:06:58;;;;;;;4.82;0.80;;;8.00;1.00;;;;;;5069832;28;20431;-81
2023/01/09 11:09:24;;;;;;;2.03;0.55;;;8.00;1.00;;;;;;5070833;28;20044;-83
2023/01/09 11:11:50;;;;;;;4.28;1.20;;;7.90;1.00;;;;;;5072025;28;20043;-81
2023/01/09 11:14:26;;;;;;;3.72;0.88;;;7.90;1.00;;;;;;5086277;28;20032;-82
2023/01/09 11:17:03;;;;;;;3.08;0.63;;;7.80;1.00;;;;;;5089718;28;20052;-82
2023/01/09 11:19:32;;;;;;;3.83;0.85;;;7.90;1.00;;;;;;5090085;28;20028;-81
2023/01/09 11:22:13;;;;;;;5.40;1.40;;;7.90;1.00;;;;;;5056147;28;20045;-82
2023/01/09 11:24:40;;;;;;;2.60;0.77;;;8.00;1.00;;;;;;5089873;28;20032;-82
2023/01/09 11:27:12;;;;;;;6.25;1.00;;;8.10;1.00;;;;;;5095834;28;20349;-82
2023/01/09 11:29:39;;;;;;;2.42;0.65;;;8.10;1.00;;;;;;5089087;28;20072;-82
2023/01/09 11:32:21;;;;;;;4.80;1.20;;;8.20;1.00;;;;;;5087670;28;20036;-83
2023/01/09 11:34:48;;;;;;;4.60;1.02;;;8.30;1.00;;;;;;5081926;28;20032;-82
2023/01/09 11:37:25;;;;;;;2.75;1.13;;;8.50;1.00;;;;;;5057755;28;20033;-83
2023/01/09 11:39:51;;;;;;;3.55;1.20;;;8.50;1.00;;;;;;5076102;28;20063;-82
2023/01/09 11:42:50;;;;;;;4.22;1.15;;;8.50;1.00;;;;;;5071209;28;20040;-81
2023/01/09 11:45:19;;;;;;;6.40;1.80;;;8.50;1.00;;;;;;5068308;28;20047;-80
2023/01/09 11:47:45;;;;;;;4.28;1.30;;;8.40;1.00;;;;;;5075734;28;20041;-82
2023/01/09 11:50:21;;;;;;;5.22;0.70;;;8.30;1.00;;;;;;5086360;28;20028;-83
2023/01/09 11:53:12;;;;;;;8.27;1.80;;;8.30;1.00;;;;;;5103819;28;20036;-79
2023/01/09 11:55:39;;;;;;;4.90;1.67;;;8.30;1.00;;;;;;5098740;28;20024;-80
2023/01/09 11:58:21;;;;;;;4.97;1.10;;;8.20;1.00;;;;;;5096273;28;20047;-80
2023/01/09 12:01:02;;;;;;;3.78;1.77;;;8.10;1.00;;;;;;5090377;28;20048;-79
2023/01/09 12:04:03;;;;;;;2.90;1.27;;;8.10;1.00;;;;;;5087534;28;20673;-79
2023/01/09 12:06:43;;;;;;;5.22;1.40;;;8.10;1.00;;;;;;5068941;28;20051;-79
2023/01/09 12:09:51;;;;;;;4.10;0.63;;;8.00;1.00;;;;;;5075674;28;20075;-80
2023/01/09 12:12:39;;;;;;;7.43;0.70;;;8.00;1.00;;;;;;5092940;28;20035;-81
2023/01/09 12:15:23;;;;;;;1.60;0.63;;;7.90;1.00;;;;;;5090019;28;20483;-81
2023/01/09 12:17:52;;;;;;;11.63;3.75;;;7.90;1.00;;;;;;5071306;28;20056;-81
2023/01/09 12:20:30;;;;;;;17.63;5.20;;;7.90;1.00;;;;;;5055079;28;20037;-80
2023/01/09 12:23:24;;;;;;;8.32;2.47;;;8.00;1.00;;;;;;5056663;28;20037;-81
2023/01/09 12:26:22;;;;;;;13.55;4.20;;;8.00;1.00;;;;;;5054051;28;20120;-80
2023/01/09 12:29:33;;;;;;;18.63;8.60;;;8.00;1.00;;;;;;5068212;28;20039;-81
2023/01/09 12:32:37;;;;;;;7.88;3.15;;;8.00;1.00;;;;;;5016699;28;20045;-81
2023/01/09 12:35:31;;;;;;;6.68;2.90;;;8.00;1.00;;;;;;4982286;28;20050;-81
2023/01/09 12:38:01;;;;;;;10.25;4.32;;;8.00;1.00;;;;;;5040752;28;20028;-81
2023/01/09 12:40:51;;;;;;;7.38;1.75;;;8.00;1.00;;;;;;5057661;28;20045;-82
2023/01/09 12:43:55;;;;;;;10.32;4.72;;;8.00;1.00;;;;;;5066105;28;20039;-80
2023/01/09 12:46:25;;;;;;;7.40;3.35;;;7.90;1.00;;;;;;5067563;28;20024;-81
2023/01/09 12:49:17;;;;;;;33.42;19.02;;;8.00;1.00;;;;;;5026581;28;20053;-80
2023/01/09 12:52:00;;;;;;;19.45;9.43;;;7.90;1.00;;;;;;5063849;28;20397;-81
2023/01/09 12:54:54;;;;;;;26.92;12.70;;;8.00;1.00;;;;;;5067733;28;20039;-80
2023/01/09 12:57:34;;;;;;;17.85;9.75;;;8.00;1.00;;;;;;5037966;28;20036;-79
2023/01/09 13:00:14;;;;;;;52.20;25.60;;;7.90;1.00;;;;;;5074590;28;20033;-81
2023/01/09 13:03:12;;;;;;;8.15;2.97;;;7.90;1.00;;;;;;5048124;28;20036;-79
2023/01/09 13:05:50;;;;;;;4.40;1.88;;;8.00;1.00;;;;;;5040086;28;20040;-80
2023/01/09 13:08:34;;;;;;;13.98;7.45;;;8.00;1.00;;;;;;5036535;28;20033;-79
2023/01/09 13:11:36;;;;;;;8.00;3.28;;;8.00;1.00;;;;;;5054526;28;20041;-79
2023/01/09 13:14:29;;;;;;;3.95;1.55;;;7.90;1.00;;;;;;4994505;28;20045;-81
2023/01/09 13:16:57;;;;;;;9.02;3.08;;;7.90;1.00;;;;;;5018180;28;20525;-81
2023/01/09 13:19:30;;;;;;;24.70;13.18;;;8.00;1.00;;;;;;5056971;28;20064;-80
2023/01/09 13:21:57;;;;;;;19.05;7.90;;;8.10;1.00;;;;;;5054415;28;20040;-81
2023/01/09 13:25:01;;;;;;;6.90;2.85;;;8.20;1.00;;;;;;5068445;28;20032;-80
2023/01/09 13:27:33;;;;;;;4.72;2.67;;;8.40;1.00;;;;;;5053581;28;20047;-81
2023/01/09 13:30:35;;;;;;;18.42;8.20;;;8.50;1.00;;;;;;5054079;28;20048;-80
2023/01/09 13:33:18;;;;;;;8.98;3.65;;;8.70;1.00;;;;;;5028522;28;20045;-82
2023/01/09 13:35:56;;;;;;;10.73;5.93;;;8.90;1.00;;;;;;5051277;28;20028;-80
2023/01/09 13:38:24;;;;;;;10.05;3.15;;;8.90;1.00;;;;;;5059972;28;20032;-80
2023/01/09 13:44:01;;;;;;;3.33;0.82;;;9.10;1.00;;;;;;5060864;28;20033;-84
2023/01/09 13:46:38;;;;;;;5.97;2.03;;;9.10;1.00;;;;;;5047903;28;20136;-85